createdAt,value
2018-07-23T00:02:37.515Z,64.99
2018-07-23T00:07:39.639Z,64.40
2018-07-23T00:12:42.133Z,65.05
2018-07-23T00:17:44.303Z,64.19
2018-07-23T00:22:46.435Z,64.91
2018-07-23T00:27:48.601Z,64.52
2018-07-23T00:32:50.743Z,65.04
2018-07-23T00:37:52.901Z,64.83
2018-07-23T00:42:55.048Z,64.65
2018-07-23T00:47:57.179Z,65.19
2018-07-23T00:52:59.322Z,65.17
2018-07-23T00:58:01.529Z,64.92
2018-07-23T01:03:07.063Z,64.87
2018-07-23T01:08:09.205Z,65.27
2018-07-23T01:13:11.353Z,66.07
2018-07-23T01:18:13.514Z,66.32
2018-07-23T01:23:15.691Z,66.00
2018-07-23T01:28:17.828Z,66.03
2018-07-23T01:33:19.969Z,66.29
2018-07-23T01:38:22.156Z,66.08
2018-07-23T01:43:24.277Z,66.64
2018-07-23T01:48:26.419Z,67.26
2018-07-23T01:53:28.584Z,66.75
2018-07-23T01:58:30.788Z,67.73
2018-07-23T02:03:32.938Z,66.47
2018-07-23T02:08:35.063Z,66.44
2018-07-23T02:13:37.186Z,66.06
2018-07-23T02:18:39.323Z,67.53
2018-07-23T02:23:41.486Z,67.35
2018-07-23T02:28:43.603Z,66.87
2018-07-23T02:33:45.723Z,67.42
2018-07-23T02:38:47.874Z,67.35
2018-07-23T02:43:50.027Z,67.76
2018-07-23T02:48:52.179Z,67.36
2018-07-23T02:53:54.322Z,68.08
2018-07-23T02:58:56.479Z,67.36
2018-07-23T03:03:58.623Z,67.89
2018-07-23T03:09:00.772Z,69.05
2018-07-23T03:14:02.958Z,68.92
2018-07-23T03:19:05.114Z,69.59
2018-07-23T03:24:07.267Z,68.96
2018-07-23T03:29:09.488Z,68.45
2018-07-23T03:34:11.610Z,68.33
2018-07-23T03:39:13.708Z,68.24
2018-07-23T03:44:15.844Z,68.13
2018-07-23T03:49:17.994Z,68.52
2018-07-23T03:54:20.114Z,67.98
2018-07-23T03:59:22.316Z,68.64
2018-07-23T04:04:24.441Z,68.99
2018-07-23T04:09:26.579Z,69.08
2018-07-23T04:14:28.695Z,68.64
2018-07-23T04:19:31.278Z,68.12
2018-07-23T04:24:33.386Z,69.12
2018-07-23T04:29:35.536Z,68.78
2018-07-23T04:34:37.715Z,67.95
2018-07-23T04:39:39.840Z,68.83
2018-07-23T04:44:41.974Z,68.46
2018-07-23T04:49:44.106Z,68.51
2018-07-23T04:54:46.280Z,69.34
2018-07-23T04:59:48.434Z,67.63
2018-07-23T05:04:50.565Z,67.69
2018-07-23T05:09:52.699Z,68.07
2018-07-23T05:14:54.885Z,68.84
2018-07-23T05:19:56.993Z,68.37
2018-07-23T05:24:59.159Z,68.18
2018-07-23T05:30:01.279Z,68.09
2018-07-23T05:35:03.775Z,69.00
2018-07-23T05:40:06.351Z,68.74
2018-07-23T05:45:08.657Z,67.78
2018-07-23T05:50:10.819Z,68.26
2018-07-23T05:55:12.981Z,67.76
2018-07-23T06:00:15.185Z,68.05
2018-07-23T06:05:17.352Z,68.75
2018-07-23T06:10:19.521Z,68.45
2018-07-23T06:15:21.670Z,68.58
2018-07-23T06:20:23.875Z,67.98
2018-07-23T06:25:26.096Z,67.80
2018-07-23T06:30:28.316Z,66.58
2018-07-23T06:35:30.468Z,65.11
2018-07-23T06:40:32.641Z,66.55
2018-07-23T06:45:34.787Z,65.62
2018-07-23T06:50:36.982Z,64.78
2018-07-23T06:55:39.182Z,64.36
2018-07-23T07:00:41.390Z,64.29
2018-07-23T07:05:43.527Z,65.40
2018-07-23T07:10:45.669Z,64.12
2018-07-23T07:15:47.809Z,63.04
2018-07-23T07:20:49.949Z,63.17
2018-07-23T07:25:52.577Z,62.84
2018-07-23T07:30:54.716Z,62.22
2018-07-23T07:35:56.911Z,60.22
2018-07-23T07:40:59.084Z,60.07
2018-07-23T07:46:01.242Z,60.03
2018-07-23T07:51:03.428Z,58.56
2018-07-23T07:56:05.807Z,57.13
2018-07-23T08:01:08.027Z,57.53
2018-07-23T08:06:11.006Z,56.42
2018-07-23T08:11:13.207Z,56.94
2018-07-23T08:16:15.411Z,57.45
2018-07-23T08:21:17.511Z,58.20
2018-07-23T08:26:19.682Z,55.33
2018-07-23T08:31:21.856Z,56.95
2018-07-23T08:36:24.017Z,54.98
2018-07-23T08:41:26.196Z,56.15
2018-07-23T08:46:28.391Z,54.12
2018-07-23T08:51:30.578Z,54.88
2018-07-23T08:56:32.764Z,53.60
2018-07-23T09:01:35.036Z,52.84
2018-07-23T09:06:37.171Z,53.74
2018-07-23T09:11:39.561Z,52.60
2018-07-23T09:16:41.710Z,52.62
2018-07-23T09:21:43.939Z,53.24
2018-07-23T09:26:46.101Z,53.20
2018-07-23T09:31:48.295Z,53.32
2018-07-23T09:36:50.435Z,50.77
2018-07-23T09:41:52.634Z,50.66
2018-07-23T09:46:55.046Z,50.61
2018-07-23T09:51:57.234Z,52.59
2018-07-23T09:56:59.395Z,51.50
2018-07-23T10:02:01.599Z,50.28
2018-07-23T10:07:04.063Z,50.47
2018-07-23T10:12:06.240Z,50.59
2018-07-23T10:17:08.458Z,50.43
2018-07-23T10:22:10.683Z,51.10
2018-07-23T10:27:12.846Z,51.30
2018-07-23T10:32:15.011Z,51.86
2018-07-23T10:37:17.188Z,51.46
2018-07-23T10:42:19.368Z,49.50
2018-07-23T10:47:21.728Z,51.51
2018-07-23T10:52:23.947Z,52.33
2018-07-23T10:57:26.130Z,50.82
2018-07-23T11:02:28.336Z,50.94
2018-07-23T11:07:30.775Z,50.52
2018-07-23T11:12:33.007Z,51.11
2018-07-23T11:17:35.819Z,52.49
2018-07-23T11:22:37.990Z,51.38
2018-07-23T11:27:40.161Z,51.01
2018-07-23T11:32:42.394Z,50.23
2018-07-23T11:37:44.550Z,50.58
2018-07-23T11:42:46.755Z,51.42
2018-07-23T11:47:48.964Z,50.20
2018-07-23T11:52:51.164Z,50.22
2018-07-23T11:57:53.383Z,51.82
2018-07-23T12:02:55.604Z,52.60
2018-07-23T12:07:57.787Z,52.46
2018-07-23T12:13:00.004Z,52.00
2018-07-23T12:18:02.207Z,52.37
2018-07-23T12:23:04.426Z,52.56
2018-07-23T12:28:06.612Z,51.65
2018-07-23T12:33:08.776Z,51.48
2018-07-23T12:38:10.961Z,50.14
2018-07-23T12:43:13.111Z,46.18
2018-07-23T12:48:15.267Z,44.81
2018-07-23T12:53:17.444Z,42.69
2018-07-23T12:58:19.601Z,42.34
2018-07-23T13:03:21.818Z,40.93
2018-07-23T13:08:24.025Z,41.27
2018-07-23T13:13:26.234Z,40.92
2018-07-23T13:18:28.441Z,40.44
2018-07-23T13:23:30.628Z,37.12
2018-07-23T13:28:32.832Z,37.62
2018-07-23T13:33:35.015Z,37.49
2018-07-23T13:38:37.207Z,37.79
2018-07-23T13:43:39.435Z,36.75
2018-07-23T13:48:41.611Z,35.22
2018-07-23T13:53:43.877Z,34.21
2018-07-23T13:58:46.077Z,34.50
2018-07-23T14:03:48.298Z,33.68
2018-07-23T14:08:50.504Z,34.75
2018-07-23T14:13:52.702Z,34.98
2018-07-23T14:18:54.827Z,35.67
2018-07-23T14:23:56.980Z,36.60
2018-07-23T14:28:59.192Z,35.34
2018-07-23T14:34:01.352Z,33.26
2018-07-23T14:39:07.073Z,33.59
2018-07-23T14:44:09.538Z,34.41
2018-07-23T14:49:11.753Z,33.03
2018-07-23T14:54:13.938Z,34.54
2018-07-23T14:59:16.167Z,33.56
2018-07-23T15:04:18.387Z,33.94
2018-07-23T15:09:20.681Z,33.16
2018-07-23T15:14:23.339Z,32.32
2018-07-23T15:19:25.516Z,33.14
2018-07-23T15:24:27.679Z,32.25
2018-07-23T15:29:29.850Z,33.38
2018-07-23T15:34:32.016Z,32.93
2018-07-23T15:39:34.182Z,33.07
2018-07-23T15:44:36.713Z,35.74
2018-07-23T15:49:38.693Z,37.51
2018-07-23T15:54:40.855Z,34.71
2018-07-23T15:59:42.989Z,33.94
2018-07-23T16:04:45.162Z,33.43
2018-07-23T16:09:47.312Z,33.75
2018-07-23T16:14:49.427Z,32.39
2018-07-23T16:19:51.615Z,33.72
2018-07-23T16:24:53.787Z,33.02
2018-07-23T16:29:56.137Z,33.87
2018-07-23T16:34:58.281Z,35.35
2018-07-23T16:40:00.470Z,34.99
2018-07-23T16:45:02.683Z,35.94
2018-07-23T16:50:04.866Z,36.76
2018-07-23T16:55:07.033Z,36.43
2018-07-23T17:00:09.212Z,36.24
2018-07-23T17:05:11.459Z,37.15
2018-07-23T17:10:13.662Z,38.24
2018-07-23T17:15:15.825Z,37.95
2018-07-23T17:20:17.961Z,37.67
2018-07-23T17:25:20.126Z,39.27
2018-07-23T17:30:22.280Z,38.86
2018-07-23T17:35:24.414Z,38.91
2018-07-23T17:40:26.601Z,38.52
2018-07-23T17:45:28.759Z,38.61
2018-07-23T17:50:31.121Z,39.32
2018-07-23T17:55:33.274Z,39.45
2018-07-23T18:00:35.457Z,40.40
2018-07-23T18:05:37.674Z,40.04
2018-07-23T18:10:39.875Z,40.94
2018-07-23T18:15:42.075Z,41.01
2018-07-23T18:20:44.267Z,42.39
2018-07-23T18:25:46.478Z,43.97
2018-07-23T18:30:48.667Z,44.74
2018-07-23T18:35:50.895Z,45.15
2018-07-23T18:40:53.127Z,45.68
2018-07-23T18:45:55.382Z,46.28
2018-07-23T18:50:57.602Z,46.64
2018-07-23T18:55:59.783Z,47.51
2018-07-23T19:01:01.997Z,47.66
2018-07-23T19:06:04.335Z,48.08
2018-07-23T19:11:06.590Z,48.08
2018-07-23T19:16:08.808Z,48.58
2018-07-23T19:21:11.017Z,48.53
2018-07-23T19:26:13.221Z,48.84
2018-07-23T19:31:15.415Z,48.90
2018-07-23T19:36:18.138Z,49.07
2018-07-23T19:41:20.387Z,48.78
2018-07-23T19:46:22.829Z,49.35
2018-07-23T19:51:25.100Z,49.40
2018-07-23T19:56:27.313Z,48.99
2018-07-23T20:01:29.548Z,49.49
2018-07-23T20:06:31.923Z,49.33
2018-07-23T20:11:34.166Z,49.41
2018-07-23T20:16:36.368Z,49.38
2018-07-23T20:21:38.558Z,49.73
2018-07-23T20:26:40.757Z,50.11
2018-07-23T20:31:42.992Z,50.07
2018-07-23T20:36:45.208Z,50.40
2018-07-23T20:41:47.551Z,50.49
2018-07-23T20:46:50.549Z,50.40
2018-07-23T20:51:52.805Z,51.61
2018-07-23T20:56:54.989Z,51.45
2018-07-23T21:01:57.151Z,51.68
2018-07-23T21:07:03.870Z,50.07
2018-07-23T21:12:06.708Z,50.57
2018-07-23T21:17:08.964Z,50.67
2018-07-23T21:22:11.279Z,51.04
2018-07-23T21:27:17.133Z,51.12
2018-07-23T21:32:20.449Z,50.85
2018-07-23T21:37:22.749Z,50.90
2018-07-23T21:42:24.955Z,51.36
2018-07-23T21:47:27.300Z,51.64
2018-07-23T21:52:30.343Z,52.35
2018-07-23T21:57:33.865Z,52.67
2018-07-23T22:02:37.477Z,53.05
2018-07-23T22:07:41.169Z,52.43
2018-07-23T22:12:44.436Z,53.53
2018-07-23T22:17:47.799Z,53.37
2018-07-23T22:22:51.613Z,53.80
2018-07-23T22:27:54.850Z,53.98
2018-07-23T22:32:58.756Z,53.85
2018-07-23T22:38:01.043Z,53.88
2018-07-23T22:43:03.217Z,54.58
2018-07-23T22:48:05.399Z,54.42
2018-07-23T22:53:07.667Z,54.68
2018-07-23T22:58:09.803Z,55.45
2018-07-23T23:03:12.039Z,55.55
2018-07-23T23:08:14.228Z,55.68
2018-07-23T23:13:16.597Z,55.51
2018-07-23T23:18:18.803Z,55.79
2018-07-23T23:23:20.949Z,55.58
2018-07-23T23:28:23.092Z,56.19
2018-07-23T23:33:25.337Z,56.39
2018-07-23T23:38:27.489Z,56.62
2018-07-23T23:43:29.825Z,56.04
2018-07-23T23:48:32.316Z,56.58
2018-07-23T23:53:34.483Z,56.12
2018-07-23T23:58:38.528Z,56.08
